Terminal Aerodrome Forecast
Issued by NWS Boston, MA

Home | Current Version | Previous Version | Text Only | Print | Product List | Glossary On
Versions: 1 2 3 4 5 6 7 8 9 10 11 12 13 14 15 16 17 18 19 20 21 22 23 24 25 26 27 28 29 30 31 32 33 34 35 36 37 38 39 40 41 42 43 44 45
000
FTUS41 KBOX 261748
TAFBOS
TAF
KBOS 261748Z 2618/2724 21012G18KT P6SM BKN060 BKN250
     FM262200 21012KT P6SM SCT060
     FM270400 21009KT P6SM SCT250
     FM270900 20008KT 6SM BR BKN080
     FM271500 20010KT 5SM TSRA BKN030CB
     FM271700 20012G19KT P6SM BKN040=

USA.gov is the U.S. government's official web portal to all federal, state and local government web resources and services.